Time;durP1;ratioP1;P1;durP2;ratioP2;P2;SDS_P1;SDS_P2;PMS_P1;PMS_P2;Temp;Humidity;BMP_temperature;BMP_pressure;BME280_temperature;BME280_humidity;BME280_pressure;Samples;Min_cycle;Max_cycle;Signal;HPM_P1;HPM_P2
2021/05/28 00:04:29;;;;;;;3.75;2.30;;;17.60;65.00;;;;;;10543578;28;20024;-58
2021/05/28 00:09:33;;;;;;;5.57;2.70;;;17.60;64.90;;;;;;10558948;28;20043;-57
2021/05/28 00:14:33;;;;;;;5.55;2.85;;;17.60;64.90;;;;;;10554915;28;20028;-57
2021/05/28 00:19:35;;;;;;;3.83;2.38;;;17.60;64.90;;;;;;10524516;28;20032;-59
2021/05/28 00:24:35;;;;;;;4.60;2.05;;;17.60;64.80;;;;;;10526611;28;20028;-58
2021/05/28 00:29:36;;;;;;;4.40;2.00;;;17.60;64.80;;;;;;10551535;28;20102;-58
2021/05/28 00:34:37;;;;;;;3.60;2.13;;;17.60;64.70;;;;;;10550648;28;20052;-58
2021/05/28 00:39:37;;;;;;;5.28;2.35;;;17.60;64.70;;;;;;10541691;28;20080;-58
2021/05/28 00:44:42;;;;;;;4.80;2.38;;;17.60;64.80;;;;;;10535677;28;20047;-58
2021/05/28 00:49:43;;;;;;;5.07;2.90;;;17.60;64.70;;;;;;10527172;28;20036;-57
2021/05/28 00:54:43;;;;;;;4.20;2.30;;;17.60;64.60;;;;;;10522594;28;20052;-58
2021/05/28 00:59:44;;;;;;;4.20;2.20;;;17.60;64.60;;;;;;10506002;28;20103;-57
2021/05/28 01:04:45;;;;;;;4.30;2.38;;;17.60;64.60;;;;;;10535958;28;20491;-58
2021/05/28 01:09:47;;;;;;;3.50;2.00;;;17.60;64.60;;;;;;10564350;28;20062;-57
2021/05/28 01:14:50;;;;;;;4.70;2.28;;;17.60;64.60;;;;;;10539582;28;20028;-58
2021/05/28 01:19:50;;;;;;;3.90;1.75;;;17.60;64.60;;;;;;10538881;28;20345;-57
2021/05/28 01:24:53;;;;;;;4.25;2.00;;;17.60;65.90;;;;;;10553708;28;20028;-58
2021/05/28 01:29:54;;;;;;;5.38;2.42;;;17.70;66.10;;;;;;10551629;28;20356;-58
2021/05/28 01:34:55;;;;;;;5.32;2.40;;;17.70;66.50;;;;;;10557716;28;20036;-58
2021/05/28 01:39:55;;;;;;;5.05;2.47;;;17.70;66.60;;;;;;10534604;28;20120;-58
2021/05/28 01:44:58;;;;;;;3.60;1.70;;;17.70;66.80;;;;;;10542598;28;20115;-58
2021/05/28 01:49:59;;;;;;;3.60;2.40;;;17.70;66.90;;;;;;10552904;28;20503;-58
2021/05/28 01:54:59;;;;;;;3.30;1.90;;;17.70;67.00;;;;;;10521269;28;20052;-58
2021/05/28 02:00:00;;;;;;;2.55;1.50;;;17.70;67.20;;;;;;10538505;28;20565;-57
2021/05/28 02:05:01;;;;;;;3.03;1.73;;;17.70;67.40;;;;;;10539137;28;20032;-58
2021/05/28 02:10:01;;;;;;;3.17;1.58;;;17.70;67.90;;;;;;10560894;28;20390;-58
2021/05/28 02:15:03;;;;;;;3.17;1.92;;;17.70;67.90;;;;;;10553170;28;20769;-57
2021/05/28 02:20:05;;;;;;;3.50;2.20;;;17.70;67.20;;;;;;10520507;28;20111;-57
2021/05/28 02:25:07;;;;;;;3.45;1.52;;;17.60;67.10;;;;;;10530922;28;20024;-57
2021/05/28 02:30:09;;;;;;;3.15;1.58;;;17.60;67.10;;;;;;10571501;28;20383;-57
2021/05/28 02:35:11;;;;;;;3.95;2.03;;;17.60;67.00;;;;;;10550728;28;20066;-57
2021/05/28 02:40:12;;;;;;;2.88;1.60;;;17.60;66.90;;;;;;10545927;28;20387;-57
2021/05/28 02:45:13;;;;;;;3.92;2.05;;;17.70;66.90;;;;;;10547308;28;20035;-57
2021/05/28 02:50:14;;;;;;;3.05;1.55;;;17.70;66.80;;;;;;10559635;28;20027;-57
2021/05/28 02:55:15;;;;;;;3.15;1.90;;;17.70;66.80;;;;;;10573496;28;20031;-57
2021/05/28 03:00:19;;;;;;;2.28;1.30;;;17.60;66.70;;;;;;10527326;28;20036;-57
2021/05/28 03:05:19;;;;;;;3.35;1.65;;;17.60;66.60;;;;;;10553456;28;20031;-57
2021/05/28 03:10:20;;;;;;;1.60;1.23;;;17.60;66.60;;;;;;10567064;28;20511;-57
2021/05/28 03:15:21;;;;;;;2.25;1.40;;;17.60;66.50;;;;;;10545008;28;20123;-57
2021/05/28 03:20:25;;;;;;;3.10;1.48;;;17.70;66.50;;;;;;10547185;28;20331;-57
2021/05/28 03:25:26;;;;;;;2.08;1.33;;;17.70;66.30;;;;;;10564757;28;20036;-57
2021/05/28 03:30:27;;;;;;;4.63;1.40;;;17.60;66.20;;;;;;10557668;28;20027;-57
2021/05/28 03:35:27;;;;;;;3.10;1.33;;;17.70;66.10;;;;;;10544128;28;20032;-57
2021/05/28 03:40:28;;;;;;;2.65;1.38;;;17.60;66.10;;;;;;10559908;28;20044;-57
2021/05/28 03:45:29;;;;;;;4.05;1.52;;;17.60;66.10;;;;;;10559789;28;20024;-57
2021/05/28 03:50:29;;;;;;;2.15;1.20;;;17.60;66.00;;;;;;10543650;28;20655;-57
2021/05/28 03:55:30;;;;;;;3.72;1.63;;;17.60;66.00;;;;;;10543829;28;20063;-57
2021/05/28 04:00:31;;;;;;;3.20;1.55;;;17.60;65.90;;;;;;10542987;28;20040;-57
2021/05/28 04:05:33;;;;;;;3.35;1.40;;;17.60;65.90;;;;;;10546943;28;20092;-57
2021/05/28 04:10:34;;;;;;;2.58;1.25;;;17.60;65.90;;;;;;10562360;28;20020;-57
2021/05/28 04:15:35;;;;;;;2.53;1.25;;;17.60;65.80;;;;;;10566830;28;20032;-57
2021/05/28 04:20:37;;;;;;;2.20;0.98;;;17.60;65.70;;;;;;10558915;28;20059;-57
2021/05/28 04:25:37;;;;;;;1.92;1.17;;;17.60;65.70;;;;;;10569842;28;20107;-57
2021/05/28 04:30:39;;;;;;;2.30;1.25;;;17.60;65.70;;;;;;10566771;28;20495;-54
2021/05/28 04:35:40;;;;;;;1.80;1.02;;;17.60;65.50;;;;;;10546517;28;20109;-57
2021/05/28 04:40:41;;;;;;;2.13;1.30;;;17.60;65.40;;;;;;10583256;28;20035;-57
2021/05/28 04:45:41;;;;;;;2.08;1.30;;;17.60;65.40;;;;;;10578152;28;20035;-57
2021/05/28 04:50:42;;;;;;;6.38;1.40;;;17.60;65.30;;;;;;10540855;28;20108;-56
2021/05/28 04:55:43;;;;;;;9.85;2.03;;;17.60;66.60;;;;;;10541165;28;20387;-57
2021/05/28 05:00:44;;;;;;;5.57;1.17;;;17.60;66.80;;;;;;10541101;28;20484;-56
2021/05/28 05:05:44;;;;;;;8.32;1.90;;;17.60;67.20;;;;;;10546511;28;20095;-56
2021/05/28 05:10:45;;;;;;;4.93;1.50;;;17.70;67.30;;;;;;10548983;28;20522;-55
2021/05/28 05:15:46;;;;;;;7.20;2.58;;;17.80;67.30;;;;;;10563570;28;20158;-55
2021/05/28 05:20:46;;;;;;;11.35;1.90;;;17.80;67.30;;;;;;10562167;28;20063;-58
2021/05/28 05:25:48;;;;;;;8.90;2.03;;;17.90;67.10;;;;;;10564213;28;20425;-57
2021/05/28 05:30:49;;;;;;;16.08;2.72;;;18.00;66.90;;;;;;10561110;28;20035;-58
2021/05/28 05:35:50;;;;;;;18.50;3.15;;;18.00;66.70;;;;;;10560339;28;20036;-53
2021/05/28 05:40:51;;;;;;;17.10;2.78;;;18.00;67.20;;;;;;10549025;28;20487;-57
2021/05/28 05:45:51;;;;;;;25.83;2.90;;;18.10;67.10;;;;;;10544756;28;20056;-56
2021/05/28 05:50:52;;;;;;;15.18;2.80;;;18.10;67.60;;;;;;10537008;28;20115;-55
2021/05/28 05:55:53;;;;;;;18.80;3.17;;;18.00;67.60;;;;;;10538748;28;20034;-55
2021/05/28 06:00:53;;;;;;;17.27;4.35;;;18.10;67.30;;;;;;10540775;28;20070;-50
2021/05/28 06:05:56;;;;;;;21.88;3.65;;;18.10;67.60;;;;;;10566901;28;20550;-57
2021/05/28 06:10:57;;;;;;;18.75;2.97;;;18.10;67.20;;;;;;10594941;28;20028;-58
2021/05/28 06:15:57;;;;;;;19.88;3.58;;;18.10;67.00;;;;;;10568305;28;20073;-55
2021/05/28 06:20:59;;;;;;;21.02;4.20;;;18.10;67.50;;;;;;10553221;28;20535;-56
2021/05/28 06:26:00;;;;;;;14.00;3.38;;;18.10;67.30;;;;;;10577421;28;20063;-58
2021/05/28 06:31:01;;;;;;;13.38;2.65;;;18.10;67.70;;;;;;10558174;28;20511;-57
2021/05/28 06:36:01;;;;;;;16.63;3.60;;;18.10;68.00;;;;;;10581041;28;20088;-58
2021/05/28 06:41:02;;;;;;;14.38;3.17;;;18.10;67.80;;;;;;10575538;28;20506;-57
2021/05/28 06:46:03;;;;;;;10.70;3.08;;;18.10;67.80;;;;;;10581655;28;20027;-59
2021/05/28 06:51:04;;;;;;;13.95;2.92;;;18.10;67.70;;;;;;10593857;28;20355;-58
2021/05/28 06:56:05;;;;;;;16.67;3.03;;;18.10;67.40;;;;;;10593263;28;20030;-57
2021/05/28 07:01:06;;;;;;;17.88;3.30;;;18.00;67.60;;;;;;10592768;28;20031;-58
2021/05/28 07:06:08;;;;;;;17.52;3.75;;;18.00;67.60;;;;;;10593198;28;20098;-53
2021/05/28 07:11:09;;;;;;;21.70;3.08;;;18.10;67.60;;;;;;10555179;28;20035;-50
2021/05/28 07:16:10;;;;;;;13.48;3.15;;;18.10;67.90;;;;;;10575614;28;20034;-54
2021/05/28 07:21:11;;;;;;;18.70;3.30;;;18.10;68.30;;;;;;10567704;28;20028;-57
2021/05/28 07:26:12;;;;;;;33.70;4.82;;;18.10;68.60;;;;;;10553217;28;20494;-57
2021/05/28 07:31:12;;;;;;;17.25;3.22;;;18.10;69.00;;;;;;10574521;28;20778;-58
2021/05/28 07:36:13;;;;;;;23.17;3.47;;;18.10;69.10;;;;;;10571060;28;20074;-55
2021/05/28 07:41:14;;;;;;;13.00;3.30;;;18.10;68.90;;;;;;10566003;28;20055;-54
2021/05/28 07:46:15;;;;;;;6.50;2.33;;;18.10;68.70;;;;;;10579079;28;20063;-53
2021/05/28 07:51:15;;;;;;;11.93;2.63;;;18.00;68.80;;;;;;10585329;28;20031;-56
2021/05/28 07:56:16;;;;;;;13.23;2.50;;;18.00;69.00;;;;;;10585165;28;20033;-56
2021/05/28 08:01:17;;;;;;;14.88;3.00;;;18.00;69.20;;;;;;10566172;28;20371;-54
2021/05/28 08:06:18;;;;;;;8.98;2.60;;;18.00;69.40;;;;;;10585205;28;20079;-53
2021/05/28 08:11:19;;;;;;;13.43;2.78;;;18.00;69.40;;;;;;10584286;28;20023;-54
2021/05/28 08:16:20;;;;;;;10.70;2.50;;;18.00;69.40;;;;;;10584659;28;20036;-56
2021/05/28 08:21:21;;;;;;;11.35;2.42;;;18.00;69.40;;;;;;10570381;28;20024;-55
2021/05/28 08:26:21;;;;;;;17.92;2.15;;;18.00;69.10;;;;;;10557161;28;20035;-55
2021/05/28 08:31:22;;;;;;;14.02;3.42;;;18.00;69.50;;;;;;10564065;28;20027;-55
2021/05/28 08:36:23;;;;;;;6.57;2.22;;;18.00;69.80;;;;;;10569783;28;20041;-52
2021/05/28 08:41:25;;;;;;;17.48;2.78;;;18.00;69.40;;;;;;10540296;28;20131;-53
2021/05/28 08:46:25;;;;;;;15.10;2.80;;;18.00;69.10;;;;;;10523024;28;20028;-56
2021/05/28 08:51:26;;;;;;;11.10;3.33;;;18.00;68.90;;;;;;10540700;28;20031;-56
2021/05/28 08:56:27;;;;;;;11.02;2.13;;;17.90;68.80;;;;;;10540635;28;20079;-56
2021/05/28 09:01:27;;;;;;;7.50;2.13;;;17.90;68.70;;;;;;10540138;28;20111;-56
2021/05/28 09:06:38;;;;;;;4.32;2.00;;;17.90;68.60;;;;;;10540378;28;20111;-56
2021/05/28 09:12:04;;;;;;;7.85;2.58;;;17.90;68.60;;;;;;10539934;28;20032;-56
2021/05/28 09:17:08;;;;;;;9.38;3.35;;;17.90;68.60;;;;;;10539655;28;20092;-54
2021/05/28 09:22:10;;;;;;;6.63;2.55;;;17.90;69.10;;;;;;10550654;28;20512;-55
2021/05/28 09:27:38;;;;;;;5.72;2.40;;;17.80;68.50;;;;;;10551437;28;20036;-50
2021/05/28 09:32:47;;;;;;;6.07;1.95;;;17.90;68.50;;;;;;10553667;28;20036;-51
2021/05/28 09:37:53;;;;;;;;;;;17.80;68.40;;;;;;10557832;28;20052;-50
2021/05/28 09:43:00;;;;;;;3.95;2.50;;;17.90;68.40;;;;;;10538662;28;19921;-52
2021/05/28 09:48:31;;;;;;;7.00;2.10;;;17.80;68.30;;;;;;10545093;28;20028;-49
2021/05/28 09:53:43;;;;;;;5.57;2.08;;;17.80;68.20;;;;;;10563166;28;20016;-56
2021/05/28 09:59:07;;;;;;;7.70;2.08;;;17.80;68.10;;;;;;10580543;28;20347;-48
2021/05/28 10:04:10;;;;;;;6.13;2.13;;;17.80;68.10;;;;;;10580723;28;20076;-53
2021/05/28 10:09:12;;;;;;;5.97;1.92;;;17.80;68.00;;;;;;10581013;28;20031;-48
2021/05/28 10:14:12;;;;;;;10.02;2.83;;;17.80;67.80;;;;;;10580324;28;20031;-54
2021/05/28 10:19:13;;;;;;;11.10;2.67;;;17.80;67.70;;;;;;10580314;28;20028;-51
2021/05/28 10:24:15;;;;;;;9.48;2.75;;;17.80;67.50;;;;;;10547079;28;20444;-56
2021/05/28 10:29:25;;;;;;;4.68;2.05;;;17.90;67.50;;;;;;10537366;28;20032;-56
2021/05/28 10:34:28;;;;;;;;;;;17.90;67.40;;;;;;10573735;28;20031;-56
2021/05/28 10:39:29;;;;;;;6.75;2.28;;;17.80;67.20;;;;;;10572058;28;20409;-56
2021/05/28 10:44:40;;;;;;;7.75;2.47;;;17.90;67.20;;;;;;10535056;28;20047;-58
2021/05/28 10:49:49;;;;;;;4.97;2.20;;;17.80;67.10;;;;;;10559216;28;20032;-58
2021/05/28 10:54:55;;;;;;;6.05;2.40;;;17.90;67.10;;;;;;10561192;28;20106;-59
2021/05/28 11:00:00;;;;;;;9.93;2.80;;;17.90;67.00;;;;;;10548891;28;20035;-59
2021/05/28 11:05:00;;;;;;;6.70;2.53;;;17.90;67.00;;;;;;10587327;28;20032;-60
2021/05/28 11:10:25;;;;;;;7.80;1.90;;;17.90;67.20;;;;;;10568844;28;20111;-60
2021/05/28 11:15:27;;;;;;;7.13;2.08;;;17.90;67.10;;;;;;10555310;28;20036;-60
2021/05/28 11:20:40;;;;;;;4.78;1.70;;;17.90;67.10;;;;;;10547107;28;20111;-59
2021/05/28 11:25:50;;;;;;;4.80;1.95;;;18.00;67.10;;;;;;10565777;28;20453;-59
2021/05/28 11:30:57;;;;;;;6.75;1.92;;;18.00;67.00;;;;;;10570299;28;20128;-59
2021/05/28 11:35:59;;;;;;;6.53;2.38;;;18.00;67.00;;;;;;10569568;28;20032;-58
2021/05/28 11:41:00;;;;;;;4.78;1.95;;;18.00;67.00;;;;;;10551913;28;20089;-59
2021/05/28 11:46:01;;;;;;;4.90;2.33;;;18.00;66.80;;;;;;10564843;28;20342;-59
2021/05/28 11:51:02;;;;;;;4.25;2.15;;;18.10;66.90;;;;;;10542733;28;20038;-59
2021/05/28 11:56:05;;;;;;;5.38;1.85;;;18.10;66.80;;;;;;10539068;28;20043;-59
2021/05/28 12:01:06;;;;;;;5.03;1.92;;;18.10;66.90;;;;;;10563117;28;20063;-59
2021/05/28 12:06:07;;;;;;;4.63;1.88;;;18.10;66.80;;;;;;10541383;28;20059;-59
2021/05/28 12:11:10;;;;;;;4.25;1.58;;;18.10;67.30;;;;;;10568107;28;20107;-58
2021/05/28 12:16:17;;;;;;;4.32;2.40;;;18.20;66.60;;;;;;10565883;28;20023;-57
2021/05/28 12:21:26;;;;;;;3.50;1.58;;;18.20;66.60;;;;;;10553272;28;20056;-58
2021/05/28 12:26:29;;;;;;;3.93;1.90;;;18.20;66.60;;;;;;10568841;28;20038;-56
2021/05/28 12:31:34;;;;;;;7.93;2.17;;;18.20;66.40;;;;;;10555164;28;20039;-57
2021/05/28 12:36:35;;;;;;;5.28;2.10;;;18.20;66.10;;;;;;10556081;28;20035;-58
2021/05/28 12:41:38;;;;;;;3.40;2.05;;;18.20;66.20;;;;;;10526214;28;20040;-58
2021/05/28 12:46:39;;;;;;;7.03;2.03;;;18.30;66.30;;;;;;10540440;28;20039;-58
2021/05/28 12:51:44;;;;;;;3.78;1.95;;;18.30;66.30;;;;;;10521947;28;20035;-58
2021/05/28 12:56:46;;;;;;;5.32;2.00;;;18.30;66.10;;;;;;10541715;28;20415;-56
2021/05/28 13:01:48;;;;;;;4.45;1.80;;;18.30;66.00;;;;;;10531317;28;20078;-58
2021/05/28 13:06:54;;;;;;;3.97;1.77;;;18.30;65.90;;;;;;10540356;28;20031;-57
2021/05/28 13:12:08;;;;;;;7.15;2.55;;;18.40;65.90;;;;;;10540491;28;20039;-56
2021/05/28 13:17:34;;;;;;;5.97;2.17;;;18.40;65.90;;;;;;10522326;28;20028;-56
2021/05/28 13:22:48;;;;;;;4.85;2.00;;;18.40;65.70;;;;;;10553233;28;20416;-55
2021/05/28 13:28:12;;;;;;;3.30;1.58;;;18.40;65.70;;;;;;10539760;28;20077;-56
2021/05/28 13:33:17;;;;;;;3.13;1.58;;;18.40;65.60;;;;;;10544066;28;20518;-56
2021/05/28 13:38:19;;;;;;;3.70;1.83;;;18.40;65.70;;;;;;10558615;28;20097;-56
2021/05/28 13:43:23;;;;;;;3.25;1.88;;;18.50;65.70;;;;;;10539210;28;20032;-56
2021/05/28 13:48:23;;;;;;;4.03;1.60;;;18.40;65.60;;;;;;10547715;28;20032;-57
2021/05/28 13:53:24;;;;;;;2.40;1.63;;;18.50;65.70;;;;;;10580895;28;20431;-56
2021/05/28 13:58:26;;;;;;;3.58;1.52;;;18.50;65.60;;;;;;10580831;28;20401;-56
2021/05/28 14:03:26;;;;;;;2.40;1.50;;;18.50;65.70;;;;;;10562863;28;20405;-56
2021/05/28 14:08:29;;;;;;;2.25;1.58;;;18.50;65.60;;;;;;10580292;28;20027;-56
2021/05/28 14:13:31;;;;;;;2.95;1.40;;;18.50;65.60;;;;;;10580941;28;20028;-58
2021/05/28 14:18:32;;;;;;;2.67;1.55;;;18.50;65.50;;;;;;10580896;28;20379;-60
2021/05/28 14:23:37;;;;;;;3.67;1.95;;;18.50;65.50;;;;;;10559720;28;20059;-56
2021/05/28 14:28:38;;;;;;;3.35;1.55;;;18.50;65.50;;;;;;10561580;28;20422;-58
2021/05/28 14:33:57;;;;;;;4.97;1.75;;;18.50;65.40;;;;;;10563076;28;20027;-56
2021/05/28 14:39:00;;;;;;;11.50;2.13;;;18.50;65.30;;;;;;10578980;28;20036;-58
2021/05/28 14:44:01;;;;;;;10.75;2.25;;;18.50;65.50;;;;;;10561980;28;20028;-56
2021/05/28 14:49:03;;;;;;;13.18;2.85;;;18.50;65.90;;;;;;10568442;28;20028;-57
2021/05/28 14:54:04;;;;;;;11.27;2.47;;;18.60;66.40;;;;;;10552814;28;20050;-55
2021/05/28 14:59:05;;;;;;;8.07;2.67;;;18.60;66.80;;;;;;10571008;28;20036;-53
2021/05/28 15:04:06;;;;;;;9.77;2.67;;;18.60;67.00;;;;;;10566967;28;20103;-52
2021/05/28 15:09:08;;;;;;;9.68;2.28;;;18.60;67.60;;;;;;10548915;28;20028;-52
2021/05/28 15:14:09;;;;;;;7.22;2.75;;;18.60;67.50;;;;;;10569323;28;20036;-56
2021/05/28 15:19:10;;;;;;;7.72;2.33;;;18.60;67.60;;;;;;10582642;28;20116;-55
2021/05/28 15:24:10;;;;;;;11.85;3.22;;;18.60;67.70;;;;;;10560803;28;20476;-56
2021/05/28 15:29:11;;;;;;;17.15;2.92;;;18.60;68.00;;;;;;10564619;28;20185;-54
2021/05/28 15:34:12;;;;;;;20.85;2.92;;;18.60;68.50;;;;;;10563263;28;20027;-54
2021/05/28 15:39:13;;;;;;;10.35;2.65;;;18.70;69.30;;;;;;10518527;28;20066;-55
2021/05/28 15:44:14;;;;;;;15.23;3.10;;;18.60;68.90;;;;;;10576861;28;20121;-55
2021/05/28 15:49:15;;;;;;;25.95;3.67;;;18.60;67.60;;;;;;10571519;28;20114;-50
2021/05/28 15:54:15;;;;;;;18.38;2.85;;;18.60;67.80;;;;;;10559099;28;20038;-53
2021/05/28 15:59:16;;;;;;;12.25;2.75;;;18.70;66.50;;;;;;10551376;28;20462;-50
2021/05/28 16:04:17;;;;;;;14.02;3.28;;;18.60;67.20;;;;;;10564091;28;20039;-54
2021/05/28 16:09:18;;;;;;;14.27;3.13;;;18.60;66.90;;;;;;10556160;28;20081;-53
2021/05/28 16:14:20;;;;;;;9.40;5.45;;;18.60;66.10;;;;;;10561790;28;20054;-56
2021/05/28 16:19:20;;;;;;;16.48;4.20;;;18.70;64.00;;;;;;10524424;28;20028;-52
2021/05/28 16:24:21;;;;;;;7.72;3.28;;;18.70;65.30;;;;;;10535903;28;20126;-54
2021/05/28 16:29:22;;;;;;;7.53;3.08;;;18.70;65.40;;;;;;10529777;28;20028;-52
2021/05/28 16:34:22;;;;;;;9.13;2.95;;;18.70;65.20;;;;;;10539289;28;20039;-51
2021/05/28 16:39:23;;;;;;;10.60;3.25;;;18.70;65.70;;;;;;10566507;28;20082;-51
2021/05/28 16:44:24;;;;;;;6.95;2.60;;;18.60;65.50;;;;;;10555173;28;20056;-54
2021/05/28 16:49:24;;;;;;;4.32;2.08;;;18.60;65.40;;;;;;10544323;28;20517;-55
2021/05/28 16:54:25;;;;;;;7.18;2.80;;;18.50;65.30;;;;;;10553270;28;20043;-55
2021/05/28 16:59:26;;;;;;;5.88;3.28;;;18.50;64.20;;;;;;10541238;28;20097;-54
2021/05/28 17:04:27;;;;;;;4.50;2.03;;;18.50;65.10;;;;;;10566627;28;20036;-55
2021/05/28 17:09:27;;;;;;;5.10;2.08;;;18.50;65.00;;;;;;10565263;28;20031;-55
2021/05/28 17:14:28;;;;;;;9.18;2.15;;;18.50;65.10;;;;;;10562514;28;20034;-53
2021/05/28 17:19:30;;;;;;;5.32;2.15;;;18.50;65.10;;;;;;10566069;28;20028;-55
2021/05/28 17:24:31;;;;;;;6.40;2.65;;;18.50;64.60;;;;;;10537719;28;20107;-55
2021/05/28 17:29:31;;;;;;;5.93;2.13;;;18.50;64.80;;;;;;10531892;28;20380;-53
2021/05/28 17:34:33;;;;;;;4.97;2.10;;;18.50;65.00;;;;;;10554680;28;20042;-54
2021/05/28 17:39:33;;;;;;;4.50;2.20;;;18.50;65.00;;;;;;10544101;28;20051;-53
2021/05/28 17:44:34;;;;;;;3.70;1.77;;;18.40;65.60;;;;;;10540310;28;20039;-54
2021/05/28 17:49:35;;;;;;;4.60;1.98;;;18.50;64.70;;;;;;10553375;28;20023;-51
2021/05/28 17:54:35;;;;;;;4.43;1.65;;;18.40;64.60;;;;;;10564449;28;20051;-54
2021/05/28 17:59:36;;;;;;;4.45;2.22;;;18.40;64.50;;;;;;10556901;28;20079;-54
2021/05/28 18:04:37;;;;;;;4.55;1.50;;;18.50;64.60;;;;;;10550957;28;20111;-52
2021/05/28 18:09:39;;;;;;;5.03;2.50;;;18.40;64.90;;;;;;10563191;28;20132;-54
2021/05/28 18:14:40;;;;;;;4.70;1.90;;;18.40;64.90;;;;;;10534587;28;20034;-52
2021/05/28 18:19:40;;;;;;;3.70;2.20;;;18.40;65.00;;;;;;10553607;28;20028;-54
2021/05/28 18:24:42;;;;;;;5.07;2.80;;;18.40;65.00;;;;;;10548552;28;20457;-54
2021/05/28 18:29:42;;;;;;;7.10;2.22;;;18.40;64.90;;;;;;10549599;28;20106;-52
2021/05/28 18:34:43;;;;;;;4.00;1.90;;;18.40;64.90;;;;;;10558905;28;20089;-52
2021/05/28 18:39:44;;;;;;;3.78;1.52;;;18.40;65.00;;;;;;10540699;28;20447;-54
2021/05/28 18:44:44;;;;;;;5.72;1.95;;;18.40;65.00;;;;;;10562282;28;20070;-54
2021/05/28 18:49:45;;;;;;;6.88;2.15;;;18.40;64.90;;;;;;10542736;28;20463;-54
2021/05/28 18:54:46;;;;;;;5.15;1.88;;;18.40;64.90;;;;;;10539956;28;20107;-53
2021/05/28 18:59:47;;;;;;;3.35;1.52;;;18.40;64.90;;;;;;10550577;28;20036;-53
2021/05/28 19:04:47;;;;;;;3.83;1.95;;;18.40;64.90;;;;;;10537643;28;20055;-53
2021/05/28 19:09:48;;;;;;;2.85;1.50;;;18.40;64.90;;;;;;10554042;28;20066;-54
2021/05/28 19:14:49;;;;;;;3.63;1.70;;;18.40;64.80;;;;;;10542461;28;20103;-54
2021/05/28 19:19:50;;;;;;;4.07;1.77;;;18.40;65.40;;;;;;10543864;28;20035;-54
2021/05/28 19:24:51;;;;;;;2.85;1.65;;;18.40;65.40;;;;;;10566869;28;20112;-54
2021/05/28 19:29:55;;;;;;;3.75;2.15;;;18.40;64.70;;;;;;10566432;28;20036;-53
2021/05/28 19:34:56;;;;;;;6.55;1.52;;;18.40;64.80;;;;;;10544729;28;20032;-52
2021/05/28 19:39:56;;;;;;;5.57;1.55;;;18.40;64.80;;;;;;10540183;28;20119;-56
2021/05/28 19:44:57;;;;;;;5.18;2.15;;;18.30;64.90;;;;;;10568717;28;20494;-57
2021/05/28 19:49:59;;;;;;;3.72;1.77;;;18.40;64.60;;;;;;10567907;28;20100;-57
2021/05/28 20:00:22;;;;;;;4.05;1.83;;;18.40;64.60;;;;;;10564050;28;20044;-57
2021/05/28 20:05:24;;;;;;;3.03;1.90;;;18.40;64.60;;;;;;10556591;28;20027;-57
2021/05/28 20:10:27;;;;;;;5.95;1.70;;;18.40;64.70;;;;;;10563610;28;20028;-57
2021/05/28 20:15:28;;;;;;;6.75;1.55;;;18.40;64.70;;;;;;10551259;28;20106;-57
2021/05/28 20:20:30;;;;;;;3.28;1.40;;;18.40;64.70;;;;;;10553483;28;20380;-57
2021/05/28 20:25:31;;;;;;;1.92;1.30;;;18.40;64.70;;;;;;10566733;28;20027;-57
2021/05/28 20:30:32;;;;;;;3.25;1.80;;;18.40;64.70;;;;;;10559662;28;20034;-57
2021/05/28 20:35:33;;;;;;;2.88;1.27;;;18.40;64.70;;;;;;10565418;28;20487;-57
2021/05/28 20:40:34;;;;;;;3.60;1.77;;;18.40;64.70;;;;;;10535582;28;20044;-57
2021/05/28 20:45:35;;;;;;;5.63;2.33;;;18.40;64.70;;;;;;10569127;28;20496;-57
2021/05/28 20:50:55;;;;;;;5.00;1.60;;;18.40;64.70;;;;;;10551980;28;20114;-57
2021/05/28 20:55:59;;;;;;;2.47;1.40;;;18.40;64.70;;;;;;10549667;28;20106;-57
2021/05/28 21:01:00;;;;;;;3.78;1.45;;;18.30;64.60;;;;;;10548328;28;20515;-57
2021/05/28 21:06:01;;;;;;;2.53;1.67;;;18.30;64.60;;;;;;10557442;28;20038;-57
2021/05/28 21:11:03;;;;;;;3.03;1.85;;;18.30;64.60;;;;;;10557885;28;20115;-57
2021/05/28 21:16:04;;;;;;;3.17;1.90;;;18.30;64.60;;;;;;10540405;28;20076;-57
2021/05/28 21:21:05;;;;;;;2.33;1.27;;;18.30;64.60;;;;;;10543881;28;20019;-57
2021/05/28 21:26:06;;;;;;;2.03;1.20;;;18.30;64.60;;;;;;10551560;28;20032;-57
2021/05/28 21:31:06;;;;;;;4.18;1.52;;;18.30;64.60;;;;;;10544220;28;20403;-57
2021/05/28 21:36:11;;;;;;;2.65;1.50;;;18.30;64.60;;;;;;10567985;28;20051;-57
2021/05/28 21:41:12;;;;;;;3.13;1.40;;;18.30;64.60;;;;;;10561719;28;20094;-57
2021/05/28 21:46:12;;;;;;;3.45;1.80;;;18.30;64.60;;;;;;10559140;28;20023;-57
2021/05/28 21:51:13;;;;;;;2.10;1.30;;;18.30;64.60;;;;;;10526332;28;20054;-57
2021/05/28 21:56:14;;;;;;;5.47;2.70;;;18.30;64.60;;;;;;10556203;28;20028;-57
2021/05/28 22:01:15;;;;;;;4.47;2.10;;;18.30;64.50;;;;;;10540033;28;20028;-57
2021/05/28 22:06:16;;;;;;;3.55;1.58;;;18.30;64.50;;;;;;10521072;28;20027;-57
2021/05/28 22:11:18;;;;;;;2.47;1.35;;;18.30;64.50;;;;;;10558171;28;20107;-57
2021/05/28 22:16:18;;;;;;;2.60;1.70;;;18.30;64.40;;;;;;10532883;28;20131;-57
2021/05/28 22:21:19;;;;;;;3.42;1.45;;;18.30;64.40;;;;;;10544328;28;20126;-57
2021/05/28 22:26:25;;;;;;;2.72;1.42;;;18.30;64.40;;;;;;10553102;28;20031;-57
2021/05/28 22:36:45;;;;;;;3.58;1.67;;;18.30;64.40;;;;;;10538269;28;20548;-57
2021/05/28 22:41:49;;;;;;;3.60;1.60;;;18.30;64.40;;;;;;10548385;28;20135;-57
2021/05/28 22:46:49;;;;;;;2.75;1.50;;;18.30;64.40;;;;;;10553271;28;20105;-57
2021/05/28 22:51:50;;;;;;;3.35;1.60;;;18.20;64.30;;;;;;10546190;28;20024;-57
2021/05/28 22:56:57;;;;;;;3.05;1.73;;;18.30;64.30;;;;;;10546176;28;20071;-57
2021/05/28 23:01:58;;;;;;;2.78;1.50;;;18.20;64.30;;;;;;10557765;28;20028;-57
2021/05/28 23:06:59;;;;;;;2.38;1.70;;;18.20;64.20;;;;;;10554946;28;20095;-57
2021/05/28 23:17:00;;;;;;;2.75;1.48;;;18.20;64.20;;;;;;10527454;28;20043;-57
2021/05/28 23:22:01;;;;;;;2.72;1.48;;;18.20;64.20;;;;;;10540511;28;20072;-57
2021/05/28 23:27:02;;;;;;;3.28;1.63;;;18.20;64.20;;;;;;10547998;28;20077;-57
2021/05/28 23:32:03;;;;;;;2.45;1.52;;;18.20;64.20;;;;;;10573589;28;20078;-57
2021/05/28 23:37:04;;;;;;;3.00;1.88;;;18.20;64.20;;;;;;10527699;28;20036;-57
2021/05/28 23:42:11;;;;;;;2.90;1.55;;;18.20;64.20;;;;;;10570755;28;20043;-57
2021/05/28 23:47:11;;;;;;;3.15;1.63;;;18.20;64.20;;;;;;10555347;28;20032;-55
2021/05/28 23:52:12;;;;;;;3.72;2.75;;;18.20;64.10;;;;;;10539820;28;20031;-57
2021/05/28 23:57:13;;;;;;;2.88;1.95;;;18.20;64.10;;;;;;10543482;28;20027;-57
